Aviation Digital Data Service (ADDS)

Output produced by METARs form (0101 UTC 19 August 2019)
found at http://www.aviationweather.gov/metar/data/
 
Forecast for: ZGOW (SHAN-TOU , CN)
Text: TAF ZGOW 181903Z 1900/1924 20003MPS 6000 FEW020 SCT040 TX33/1906Z TN26/1922Z
Forecast period: 0000 UTC 19 August 2019 to 0000 UTC 20 August 2019
Forecast type: FROM: standard forecast or significant change
Winds: from the SSW (200 degrees) at 7 MPH (6 knots; 3.1 m/s)
Visibility: 4 miles (6 km)
Ceiling: at least 12,000 feet AGL
Clouds: few clouds at 2000 feet AGL
scattered clouds at 4000 feet AGL
Weather: no significant weather forecast for this period
Text: TEMPO 1904/1910 VRB09G14MPS 2100 TSRA SCT011 FEW026CB BKN033
Forecast period: 0400 to 1000 UTC 19 August 2019
Forecast type: TEMPORARY: The following changes expected for less than half the time period
Winds: variable direction winds at 20 MPH (17 knots; 8.7 m/s)
gusting to 31 MPH (27 knots; 13.9 m/s)
Visibility: 1.30 miles (2.09 km)
Ceiling: 3300 feet AGL
Clouds: scattered clouds at 1100 feet AGL
few clouds at 2600 feet AGL
broken clouds at 3300 feet AGL
Weather: TSRA  (rain associated with thunderstorm(s))